Crescent, Oklahoma
Current Conditions -  °F | °C
As of 8:53 PM on Friday 24 Oct 2014 (Local Time) from KGOK Reporting Station
Clear Clear  
Wind Chill: 72°   Ceiling: Unl
Heat Index: 72°   Visibility: 10mi
Dew Point: 61°   Wind: 6mph
Humidity: 68%   Direction: 150°SSE
Pressure: 30.03"   Gusts: NA
Location:  35.95°N, 97.59°W
Report Text: KGOK 250153Z AUTO 15005KT 10SM CLR 22/16 A3003 RMK AO2 SLP163 T02220161
Loading
Personal Weather Stations






























Interactive Weather Map New forecast layout! Learn more

10-Day Weather Forecast

Advertisements
Track Severe Weather on mobile